Time;durP1;ratioP1;P1;durP2;ratioP2;P2;SDS_P1;SDS_P2;PMS_P1;PMS_P2;Temp;Humidity;BMP_temperature;BMP_pressure;BME280_temperature;BME280_humidity;BME280_pressure;Samples;Min_cycle;Max_cycle;Signal;HPM_P1;HPM_P2
2022/03/23 00:01:37;;;;;;;25.85;17.90;;;;;;;;;;4967279;28;20031;-82
2022/03/23 00:04:02;;;;;;;28.35;17.52;;;;;;;;;;4968238;28;20038;-84
2022/03/23 00:06:27;;;;;;;29.73;18.65;;;;;;;;;;4966066;28;20081;-81
2022/03/23 00:08:53;;;;;;;30.83;18.27;;;;;;;;;;4966735;28;20090;-81
2022/03/23 00:11:19;;;;;;;27.70;18.27;;;;;;;;;;4968134;28;20513;-86
2022/03/23 00:13:44;;;;;;;30.88;18.15;;;;;;;;;;4968131;28;20554;-82
2022/03/23 00:16:10;;;;;;;27.08;17.38;;;;;;;;;;4966884;28;20030;-81
2022/03/23 00:18:35;;;;;;;26.73;17.15;;;;;;;;;;4968816;28;20039;-81
2022/03/23 00:21:01;;;;;;;31.50;19.13;;;;;;;;;;4966090;28;20567;-82
2022/03/23 00:23:26;;;;;;;28.90;18.25;;;;;;;;;;4967669;28;20023;-81
2022/03/23 00:25:52;;;;;;;26.98;17.40;;;;;;;;;;4967360;28;20031;-82
2022/03/23 00:28:18;;;;;;;28.65;17.67;;;;;;;;;;4966591;28;20077;-82
2022/03/23 00:30:43;;;;;;;28.17;17.40;;;;;;;;;;4966906;28;20038;-81
2022/03/23 00:33:08;;;;;;;28.27;17.60;;;;;;;;;;4967839;28;20451;-82
2022/03/23 00:35:34;;;;;;;28.15;17.65;;;;;;;;;;4996016;28;20037;-81
2022/03/23 00:37:59;;;;;;;29.73;17.92;;;;;;;;;;4968710;28;20444;-82
2022/03/23 00:40:25;;;;;;;26.85;17.52;;;;;;;;;;4967410;28;20121;-82
2022/03/23 00:42:51;;;;;;;33.10;17.98;;;;;;;;;;4968744;28;20042;-82
2022/03/23 00:45:17;;;;;;;30.67;17.73;;;;;;;;;;4970361;28;20034;-82
2022/03/23 00:47:43;;;;;;;30.80;18.35;;;;;;;;;;4965447;28;20113;-82
2022/03/23 00:50:09;;;;;;;30.42;17.75;;;;;;;;;;4967968;28;20447;-83
2022/03/23 00:52:36;;;;;;;28.17;18.67;;;;;;;;;;4985787;28;20553;-82
2022/03/23 00:55:02;;;;;;;30.08;18.42;;;;;;;;;;4972725;28;20035;-86
2022/03/23 00:57:27;;;;;;;27.50;17.58;;;;;;;;;;4968305;28;20030;-85
2022/03/23 00:59:52;;;;;;;28.60;17.95;;;;;;;;;;4989674;28;20113;-84
2022/03/23 01:02:18;;;;;;;25.88;17.60;;;;;;;;;;5002749;28;20031;-83
2022/03/23 01:04:43;;;;;;;26.23;17.88;;;;;;;;;;4990392;28;20034;-85
2022/03/23 01:07:08;;;;;;;29.08;17.70;;;;;;;;;;4969705;28;20057;-85
2022/03/23 01:09:34;;;;;;;29.85;17.33;;;;;;;;;;4999448;28;20022;-83
2022/03/23 01:11:59;;;;;;;25.42;17.08;;;;;;;;;;4964476;28;20060;-83
2022/03/23 01:14:26;;;;;;;30.23;17.70;;;;;;;;;;4982561;28;20656;-84
2022/03/23 01:16:52;;;;;;;30.02;17.48;;;;;;;;;;4985574;28;20042;-82
2022/03/23 01:19:20;;;;;;;30.98;17.73;;;;;;;;;;4971349;28;20030;-81
2022/03/23 01:21:45;;;;;;;29.35;18.40;;;;;;;;;;4966201;28;20034;-85
2022/03/23 01:24:11;;;;;;;27.33;17.38;;;;;;;;;;4971782;28;20479;-83
2022/03/23 01:26:36;;;;;;;27.92;18.35;;;;;;;;;;4986148;28;20179;-82
2022/03/23 01:29:03;;;;;;;26.92;17.55;;;;;;;;;;4999286;28;20057;-85
2022/03/23 01:31:29;;;;;;;26.52;16.70;;;;;;;;;;4969620;28;20019;-83
2022/03/23 01:33:59;;;;;;;29.73;17.95;;;;;;;;;;4983738;28;20115;-82
2022/03/23 01:36:29;;;;;;;27.42;17.90;;;;;;;;;;4966563;28;20030;-82
2022/03/23 01:38:54;;;;;;;30.77;18.30;;;;;;;;;;4965022;28;20061;-83
2022/03/23 01:41:20;;;;;;;28.33;17.23;;;;;;;;;;4967877;28;20074;-83
2022/03/23 01:43:46;;;;;;;32.13;17.85;;;;;;;;;;4970083;28;20113;-83
2022/03/23 01:46:12;;;;;;;30.55;17.70;;;;;;;;;;4998316;28;20038;-84
2022/03/23 01:48:37;;;;;;;30.58;17.35;;;;;;;;;;4986671;28;20109;-81
2022/03/23 01:51:03;;;;;;;31.00;17.20;;;;;;;;;;4970067;28;20599;-84
2022/03/23 01:53:28;;;;;;;27.80;17.48;;;;;;;;;;4969301;28;20605;-82
2022/03/23 01:55:54;;;;;;;27.00;16.52;;;;;;;;;;4969776;28;20035;-84
2022/03/23 01:58:23;;;;;;;28.58;18.40;;;;;;;;;;4987615;28;20126;-83
2022/03/23 02:00:48;;;;;;;27.10;17.20;;;;;;;;;;4970586;28;20036;-85
2022/03/23 02:03:14;;;;;;;29.58;17.65;;;;;;;;;;4967615;28;20026;-82
2022/03/23 02:05:39;;;;;;;28.08;17.23;;;;;;;;;;5000974;28;20034;-85
2022/03/23 02:08:05;;;;;;;29.00;17.70;;;;;;;;;;4979798;28;20026;-83
2022/03/23 02:10:31;;;;;;;27.48;17.38;;;;;;;;;;4987919;28;20030;-83
2022/03/23 02:12:56;;;;;;;29.73;18.52;;;;;;;;;;4968352;28;20049;-83
2022/03/23 02:15:23;;;;;;;30.13;18.00;;;;;;;;;;4966520;28;20030;-83
2022/03/23 02:17:53;;;;;;;30.15;18.67;;;;;;;;;;4986617;28;20033;-83
2022/03/23 02:20:19;;;;;;;28.67;17.92;;;;;;;;;;4985092;28;20085;-85
2022/03/23 02:22:44;;;;;;;28.23;17.42;;;;;;;;;;4966092;28;20034;-81
2022/03/23 02:25:10;;;;;;;27.08;17.08;;;;;;;;;;4969767;28;20026;-82
2022/03/23 02:27:37;;;;;;;34.35;17.95;;;;;;;;;;4987090;28;20519;-81
2022/03/23 02:30:07;;;;;;;28.90;18.05;;;;;;;;;;4969319;28;20034;-82
2022/03/23 02:32:33;;;;;;;29.67;18.05;;;;;;;;;;4980536;28;20026;-82
2022/03/23 02:35:00;;;;;;;27.92;17.95;;;;;;;;;;4969424;28;20038;-85
2022/03/23 02:37:26;;;;;;;33.92;17.98;;;;;;;;;;4981255;28;20042;-82
2022/03/23 02:39:51;;;;;;;34.45;18.25;;;;;;;;;;4968990;28;20038;-80
2022/03/23 02:42:17;;;;;;;30.15;17.92;;;;;;;;;;4967549;28;20038;-81
2022/03/23 02:44:43;;;;;;;29.08;18.02;;;;;;;;;;4998044;28;20045;-86
2022/03/23 02:47:08;;;;;;;29.02;17.50;;;;;;;;;;4967144;28;20037;-82
2022/03/23 02:49:35;;;;;;;32.17;18.60;;;;;;;;;;4969494;28;20026;-84
2022/03/23 02:52:00;;;;;;;28.63;17.67;;;;;;;;;;4967063;28;20046;-84
2022/03/23 03:03:33;;;;;;;28.15;17.85;;;;;;;;;;4987194;28;20053;-84
2022/03/23 03:06:02;;;;;;;30.38;18.10;;;;;;;;;;4971307;28;20034;-84
2022/03/23 03:08:45;;;;;;;27.52;16.90;;;;;;;;;;4965913;28;20030;-82
2022/03/23 03:11:11;;;;;;;33.00;17.15;;;;;;;;;;4965344;28;20018;-82
2022/03/23 03:13:38;;;;;;;31.65;17.15;;;;;;;;;;4984202;28;20477;-82
2022/03/23 03:16:03;;;;;;;29.10;17.52;;;;;;;;;;4985630;28;20022;-82
2022/03/23 03:18:33;;;;;;;25.05;16.00;;;;;;;;;;4965776;28;20092;-85
2022/03/23 03:21:06;;;;;;;26.52;16.58;;;;;;;;;;4968761;28;20253;-83
2022/03/23 03:23:42;;;;;;;31.55;17.45;;;;;;;;;;4968177;28;20092;-82
2022/03/23 03:26:08;;;;;;;28.02;16.55;;;;;;;;;;4965266;28;20030;-83
2022/03/23 03:28:35;;;;;;;30.27;17.25;;;;;;;;;;4965066;28;20081;-84
2022/03/23 03:31:07;;;;;;;27.08;16.85;;;;;;;;;;4965370;28;20026;-82
2022/03/23 03:33:33;;;;;;;25.67;16.02;;;;;;;;;;4972485;28;20057;-81
2022/03/23 03:35:59;;;;;;;31.10;17.90;;;;;;;;;;4973112;28;20030;-85
2022/03/23 03:38:25;;;;;;;30.58;17.55;;;;;;;;;;4970518;28;20034;-85
2022/03/23 03:40:50;;;;;;;26.67;17.45;;;;;;;;;;4972398;28;20050;-85
2022/03/23 03:43:16;;;;;;;26.77;16.52;;;;;;;;;;4986697;28;20035;-85
2022/03/23 03:45:42;;;;;;;27.02;16.80;;;;;;;;;;4970419;28;20092;-82
2022/03/23 03:48:08;;;;;;;30.02;18.08;;;;;;;;;;4972617;28;20510;-85
2022/03/23 03:50:34;;;;;;;29.90;17.27;;;;;;;;;;4986853;28;20030;-83
2022/03/23 03:53:00;;;;;;;27.27;17.60;;;;;;;;;;4967936;28;20029;-84
2022/03/23 03:55:25;;;;;;;28.90;17.02;;;;;;;;;;4971578;28;20034;-85
2022/03/23 03:57:51;;;;;;;29.27;17.20;;;;;;;;;;4990960;28;20041;-83
2022/03/23 04:00:17;;;;;;;23.63;16.42;;;;;;;;;;4970369;28;20031;-82
2022/03/23 04:02:42;;;;;;;25.45;16.10;;;;;;;;;;4987587;28;20027;-84
2022/03/23 04:05:08;;;;;;;25.25;15.82;;;;;;;;;;4968415;28;20042;-82
2022/03/23 04:07:33;;;;;;;25.85;16.17;;;;;;;;;;5000553;28;20032;-83
2022/03/23 04:10:06;;;;;;;24.92;16.55;;;;;;;;;;4965662;28;20030;-82
2022/03/23 04:12:31;;;;;;;27.10;16.50;;;;;;;;;;4966821;28;20816;-85
2022/03/23 04:14:56;;;;;;;27.98;17.02;;;;;;;;;;4986771;28;20031;-82
2022/03/23 04:17:22;;;;;;;26.90;16.58;;;;;;;;;;4966158;28;20066;-82
2022/03/23 04:19:47;;;;;;;29.00;18.08;;;;;;;;;;4970979;28;20412;-83
2022/03/23 04:22:12;;;;;;;30.45;17.48;;;;;;;;;;4971107;28;20026;-84
2022/03/23 04:24:38;;;;;;;28.75;16.10;;;;;;;;;;4999016;28;20121;-84
2022/03/23 04:27:04;;;;;;;30.75;18.02;;;;;;;;;;4984615;28;20034;-83
2022/03/23 04:29:29;;;;;;;27.13;18.10;;;;;;;;;;4969403;28;20092;-83
2022/03/23 04:31:54;;;;;;;28.80;17.13;;;;;;;;;;4968590;28;20022;-84
2022/03/23 04:34:20;;;;;;;30.08;17.05;;;;;;;;;;5005098;28;20430;-85
2022/03/23 04:36:45;;;;;;;27.92;17.52;;;;;;;;;;4987745;28;20109;-86
2022/03/23 04:39:10;;;;;;;29.27;17.63;;;;;;;;;;4974106;28;20026;-82
2022/03/23 04:41:36;;;;;;;24.92;16.45;;;;;;;;;;4986081;28;20050;-85
2022/03/23 04:44:01;;;;;;;28.05;16.35;;;;;;;;;;4990170;28;20034;-82
2022/03/23 04:46:26;;;;;;;26.98;16.27;;;;;;;;;;4971889;28;20031;-84
2022/03/23 04:48:52;;;;;;;27.25;16.17;;;;;;;;;;4989838;28;20030;-83
2022/03/23 04:51:18;;;;;;;25.92;16.30;;;;;;;;;;4971480;28;20411;-84
2022/03/23 04:53:43;;;;;;;32.47;17.33;;;;;;;;;;4969535;28;20033;-84
2022/03/23 04:56:09;;;;;;;26.23;16.48;;;;;;;;;;4972387;28;20037;-85
2022/03/23 04:58:34;;;;;;;25.17;16.73;;;;;;;;;;4967020;28;20062;-83
2022/03/23 05:01:00;;;;;;;31.55;17.42;;;;;;;;;;4982756;28;20376;-83
2022/03/23 05:03:26;;;;;;;29.73;18.20;;;;;;;;;;4981336;28;20507;-83
2022/03/23 05:05:52;;;;;;;29.80;17.13;;;;;;;;;;4967262;28;20566;-82
2022/03/23 05:08:18;;;;;;;26.55;17.35;;;;;;;;;;4971766;28;20499;-83
2022/03/23 05:10:43;;;;;;;29.02;17.48;;;;;;;;;;4971032;28;20510;-83
2022/03/23 05:13:10;;;;;;;30.88;18.17;;;;;;;;;;5000244;28;20383;-83
2022/03/23 05:15:36;;;;;;;31.23;17.52;;;;;;;;;;4981311;28;20034;-82
2022/03/23 05:18:01;;;;;;;32.00;18.70;;;;;;;;;;4973627;28;20049;-85
2022/03/23 05:20:26;;;;;;;30.15;18.15;;;;;;;;;;4989557;28;20034;-83
2022/03/23 05:22:53;;;;;;;30.02;18.20;;;;;;;;;;4987915;28;20034;-85
2022/03/23 05:25:19;;;;;;;30.20;18.15;;;;;;;;;;4995121;28;20045;-82
2022/03/23 05:27:45;;;;;;;30.35;18.50;;;;;;;;;;5001511;28;20022;-82
2022/03/23 05:30:12;;;;;;;29.48;16.85;;;;;;;;;;4964594;28;20135;-83
2022/03/23 05:32:39;;;;;;;29.63;17.30;;;;;;;;;;4967754;28;20687;-84
2022/03/23 05:35:05;;;;;;;29.00;18.00;;;;;;;;;;4988302;28;20026;-82
2022/03/23 05:37:31;;;;;;;28.90;17.38;;;;;;;;;;4981507;28;20176;-81
2022/03/23 05:39:56;;;;;;;31.50;17.85;;;;;;;;;;4988992;28;20136;-85
2022/03/23 05:42:22;;;;;;;29.13;17.23;;;;;;;;;;4972696;28;20549;-84
2022/03/23 05:44:47;;;;;;;30.67;17.08;;;;;;;;;;4972005;28;20502;-83
2022/03/23 05:47:13;;;;;;;29.60;17.42;;;;;;;;;;4968646;28;20077;-83
2022/03/23 05:49:38;;;;;;;30.60;17.92;;;;;;;;;;4970775;28;20034;-85
2022/03/23 05:52:04;;;;;;;28.63;17.20;;;;;;;;;;4983734;28;20054;-84
2022/03/23 05:54:29;;;;;;;28.27;17.92;;;;;;;;;;4996725;28;20034;-83
2022/03/23 05:56:55;;;;;;;27.77;17.23;;;;;;;;;;4968290;28;20033;-82
2022/03/23 05:59:20;;;;;;;29.13;17.42;;;;;;;;;;4968251;28;20034;-84
2022/03/23 06:01:46;;;;;;;29.30;17.27;;;;;;;;;;4968234;28;20022;-84
2022/03/23 06:04:12;;;;;;;29.38;17.20;;;;;;;;;;4983960;28;20058;-82
2022/03/23 06:06:38;;;;;;;28.98;17.52;;;;;;;;;;4998599;28;20088;-85
2022/03/23 06:09:04;;;;;;;29.63;17.98;;;;;;;;;;4963691;28;20445;-83
2022/03/23 06:11:29;;;;;;;30.17;18.05;;;;;;;;;;4965643;28;20038;-84
2022/03/23 06:13:54;;;;;;;29.67;16.70;;;;;;;;;;4987620;28;20033;-84
2022/03/23 06:16:19;;;;;;;30.35;17.17;;;;;;;;;;4971690;28;20368;-85
2022/03/23 06:18:46;;;;;;;27.67;17.63;;;;;;;;;;4989328;28;20038;-84
2022/03/23 06:21:11;;;;;;;25.70;17.25;;;;;;;;;;4976266;28;20034;-84
2022/03/23 06:23:37;;;;;;;29.15;17.55;;;;;;;;;;4977688;28;20053;-84
2022/03/23 06:26:03;;;;;;;28.25;17.95;;;;;;;;;;4973968;28;20032;-83
2022/03/23 06:28:29;;;;;;;34.75;18.10;;;;;;;;;;4978091;28;20022;-82
2022/03/23 06:30:55;;;;;;;34.42;17.77;;;;;;;;;;4972069;28;20053;-83
2022/03/23 06:33:21;;;;;;;28.08;16.77;;;;;;;;;;4972608;28;20117;-84
2022/03/23 06:35:46;;;;;;;29.02;17.30;;;;;;;;;;4993272;28;20105;-85
2022/03/23 06:38:13;;;;;;;31.05;18.52;;;;;;;;;;4969576;28;20045;-85
2022/03/23 06:40:40;;;;;;;28.58;17.33;;;;;;;;;;4985400;28;20050;-85
2022/03/23 06:43:05;;;;;;;30.45;17.85;;;;;;;;;;4971843;28;20034;-86
2022/03/23 06:45:50;;;;;;;;;;;;;;;;;;;;;
2022/03/23 06:48:15;;;;;;;33.72;17.77;;;;;;;;;;4983206;28;20800;-84
2022/03/23 06:50:40;;;;;;;32.78;19.65;;;;;;;;;;4967973;28;20084;-82
2022/03/23 06:53:06;;;;;;;30.65;17.50;;;;;;;;;;4968779;28;20121;-84
2022/03/23 06:55:31;;;;;;;35.95;19.13;;;;;;;;;;4960890;28;20026;-83
2022/03/23 06:57:56;;;;;;;30.00;17.95;;;;;;;;;;4967055;28;20022;-83
2022/03/23 07:00:22;;;;;;;33.53;18.73;;;;;;;;;;4967015;28;20027;-83
2022/03/23 07:02:49;;;;;;;33.80;19.17;;;;;;;;;;4971285;28;20406;-85
2022/03/23 07:05:16;;;;;;;34.88;18.20;;;;;;;;;;4973945;28;20032;-82
2022/03/23 07:09:31;;;;;;;30.27;18.65;;;;;;;;;;4988475;28;20034;-82
2022/03/23 07:10:28;;;;;;;35.70;18.65;;;;;;;;;;4989037;28;20529;-84
2022/03/23 07:12:55;;;;;;;32.60;18.80;;;;;;;;;;4974939;28;20122;-85
2022/03/23 07:15:20;;;;;;;30.27;19.30;;;;;;;;;;5002959;28;20022;-84
2022/03/23 07:17:45;;;;;;;34.90;19.27;;;;;;;;;;4973108;28;20078;-82
2022/03/23 07:20:11;;;;;;;31.95;18.67;;;;;;;;;;4989312;28;20509;-84
2022/03/23 07:22:36;;;;;;;32.63;19.08;;;;;;;;;;4973331;28;20023;-85
2022/03/23 07:25:02;;;;;;;32.33;19.42;;;;;;;;;;4990380;28;20034;-84
2022/03/23 07:27:27;;;;;;;34.50;19.98;;;;;;;;;;4968461;28;20510;-81
2022/03/23 07:29:53;;;;;;;34.22;20.73;;;;;;;;;;4984004;28;20057;-82
2022/03/23 07:32:19;;;;;;;35.25;20.15;;;;;;;;;;4962958;28;20062;-82
2022/03/23 07:34:44;;;;;;;32.70;19.33;;;;;;;;;;4998649;28;20049;-84
2022/03/23 07:37:09;;;;;;;37.63;19.45;;;;;;;;;;4973431;28;20056;-81
2022/03/23 07:39:35;;;;;;;35.38;20.42;;;;;;;;;;4965978;28;20030;-82
2022/03/23 07:42:02;;;;;;;35.53;20.25;;;;;;;;;;4971058;28;20038;-84
2022/03/23 07:44:29;;;;;;;33.05;19.95;;;;;;;;;;4967410;28;20563;-82
2022/03/23 07:46:55;;;;;;;33.10;19.45;;;;;;;;;;4970758;28;20479;-83
2022/03/23 07:49:20;;;;;;;32.55;20.85;;;;;;;;;;4967504;28;20026;-82
2022/03/23 07:51:46;;;;;;;37.72;20.98;;;;;;;;;;4968908;28;20080;-84
2022/03/23 07:54:11;;;;;;;33.08;20.70;;;;;;;;;;4966931;28;20040;-84
2022/03/23 07:56:37;;;;;;;34.00;21.45;;;;;;;;;;4969183;28;20080;-81
2022/03/23 07:59:03;;;;;;;32.95;21.08;;;;;;;;;;4970629;28;20131;-82
2022/03/23 08:01:29;;;;;;;35.40;20.33;;;;;;;;;;4969533;28;20076;-82
2022/03/23 08:03:54;;;;;;;34.58;20.73;;;;;;;;;;4959299;28;20125;-81
2022/03/23 08:06:19;;;;;;;33.65;20.88;;;;;;;;;;4970575;28;20019;-84
2022/03/23 08:08:45;;;;;;;33.05;20.70;;;;;;;;;;4975514;28;20518;-83
2022/03/23 08:11:11;;;;;;;35.88;21.42;;;;;;;;;;5006932;28;20125;-82
2022/03/23 08:13:36;;;;;;;33.00;21.52;;;;;;;;;;4974453;28;20042;-84
2022/03/23 08:16:03;;;;;;;32.83;19.77;;;;;;;;;;4969219;28;20057;-83
2022/03/23 08:18:29;;;;;;;35.70;21.25;;;;;;;;;;4970422;28;20221;-82
2022/03/23 08:20:54;;;;;;;35.30;21.70;;;;;;;;;;4988026;28;20121;-82
2022/03/23 08:23:20;;;;;;;36.83;22.05;;;;;;;;;;4974242;28;20054;-82
2022/03/23 08:25:45;;;;;;;37.40;21.48;;;;;;;;;;4977291;28;20026;-82
2022/03/23 08:28:14;;;;;;;38.63;22.08;;;;;;;;;;4976809;28;20022;-82
2022/03/23 08:30:41;;;;;;;34.38;21.65;;;;;;;;;;5004479;28;20037;-81
2022/03/23 08:33:06;;;;;;;35.22;20.92;;;;;;;;;;4979944;28;20026;-84
2022/03/23 08:35:32;;;;;;;39.22;22.13;;;;;;;;;;4995746;28;20038;-84
2022/03/23 08:37:57;;;;;;;38.42;22.10;;;;;;;;;;4995438;28;20023;-84
2022/03/23 08:40:23;;;;;;;39.63;22.45;;;;;;;;;;4997514;28;20030;-82
2022/03/23 08:42:49;;;;;;;36.63;22.02;;;;;;;;;;4974752;28;20042;-81
2022/03/23 08:45:15;;;;;;;36.13;21.58;;;;;;;;;;4975404;28;20022;-84
2022/03/23 08:47:42;;;;;;;36.92;20.65;;;;;;;;;;4978419;28;20101;-81
2022/03/23 08:50:10;;;;;;;35.70;22.08;;;;;;;;;;4977437;28;20019;-85
2022/03/23 08:52:37;;;;;;;38.90;21.48;;;;;;;;;;4975595;28;20034;-83
2022/03/23 08:55:14;;;;;;;33.97;21.17;;;;;;;;;;4979148;28;20090;-81
2022/03/23 08:57:40;;;;;;;34.53;20.88;;;;;;;;;;4989272;28;20045;-82
2022/03/23 09:00:07;;;;;;;36.00;21.38;;;;;;;;;;4980116;28;20105;-82
2022/03/23 09:02:32;;;;;;;33.85;21.08;;;;;;;;;;4974742;28;20053;-84
2022/03/23 09:04:58;;;;;;;32.58;21.85;;;;;;;;;;4976343;28;20050;-80
2022/03/23 09:07:23;;;;;;;32.40;20.70;;;;;;;;;;4978351;28;20026;-82
2022/03/23 09:09:48;;;;;;;34.53;21.27;;;;;;;;;;4976429;28;20042;-81
2022/03/23 09:12:14;;;;;;;34.13;20.23;;;;;;;;;;4972547;28;20184;-80
2022/03/23 09:14:39;;;;;;;36.45;21.50;;;;;;;;;;4972230;28;20027;-82
2022/03/23 09:17:05;;;;;;;35.47;20.58;;;;;;;;;;4981222;28;20034;-82
2022/03/23 09:19:31;;;;;;;34.90;22.23;;;;;;;;;;4977853;28;20113;-81
2022/03/23 09:21:59;;;;;;;36.05;22.00;;;;;;;;;;4977286;28;20118;-80
2022/03/23 09:24:25;;;;;;;33.47;20.27;;;;;;;;;;4978821;28;20027;-82
2022/03/23 09:26:50;;;;;;;33.40;21.02;;;;;;;;;;4975026;28;20486;-82
2022/03/23 09:29:15;;;;;;;35.83;23.10;;;;;;;;;;4979123;28;20028;-82
2022/03/23 09:31:41;;;;;;;31.40;20.83;;;;;;;;;;4988543;28;20038;-85
2022/03/23 09:34:07;;;;;;;34.15;21.75;;;;;;;;;;4973667;28;20027;-81
2022/03/23 09:39:17;;;;;;;29.58;20.55;;;;;;;;;;4976474;28;20118;-82
2022/03/23 09:41:45;;;;;;;32.33;20.33;;;;;;;;;;4982242;28;20057;-81
2022/03/23 09:44:11;;;;;;;39.78;21.73;;;;;;;;;;4973207;28;20023;-82
2022/03/23 09:46:36;;;;;;;34.72;20.63;;;;;;;;;;4996863;28;20471;-82
2022/03/23 09:49:02;;;;;;;36.35;21.52;;;;;;;;;;4991505;28;20088;-82
2022/03/23 09:51:31;;;;;;;30.25;21.48;;;;;;;;;;4972936;28;20126;-79
2022/03/23 09:53:58;;;;;;;32.63;20.90;;;;;;;;;;4990131;28;20033;-81
2022/03/23 09:56:23;;;;;;;34.10;21.52;;;;;;;;;;4978163;28;20053;-81
2022/03/23 09:58:48;;;;;;;36.10;23.08;;;;;;;;;;4996625;28;20018;-79
2022/03/23 10:01:29;;;;;;;42.33;23.50;;;;;;;;;;4976335;28;20022;-81
2022/03/23 10:04:12;;;;;;;35.75;22.67;;;;;;;;;;4994722;28;20105;-78
2022/03/23 10:06:53;;;;;;;39.53;22.15;;;;;;;;;;5001659;28;20375;-80
2022/03/23 10:09:45;;;;;;;40.33;24.05;;;;;;;;;;4994826;28;20057;-81
2022/03/23 10:13:07;;;;;;;33.80;22.75;;;;;;;;;;4993102;28;20026;-81
2022/03/23 10:16:06;;;;;;;34.97;22.48;;;;;;;;;;4975321;28;20052;-81
2022/03/23 10:18:53;;;;;;;32.15;21.75;;;;;;;;;;4994888;28;20045;-80
2022/03/23 10:21:27;;;;;;;35.33;22.92;;;;;;;;;;4978006;28;20080;-86
2022/03/23 10:23:58;;;;;;;35.58;22.95;;;;;;;;;;4968070;28;20030;-81
2022/03/23 10:26:24;;;;;;;33.15;22.80;;;;;;;;;;4992229;28;20651;-81
2022/03/23 10:28:49;;;;;;;34.00;22.17;;;;;;;;;;4981777;28;20038;-81
2022/03/23 10:31:23;;;;;;;33.15;22.63;;;;;;;;;;4973722;28;20042;-81
2022/03/23 10:33:59;;;;;;;34.63;22.67;;;;;;;;;;4970086;28;20509;-79
2022/03/23 10:36:27;;;;;;;32.10;21.52;;;;;;;;;;4982849;28;20034;-82
2022/03/23 10:39:05;;;;;;;32.08;22.08;;;;;;;;;;4973399;28;20022;-87
2022/03/23 10:41:30;;;;;;;33.05;22.33;;;;;;;;;;4971234;28;20564;-79
2022/03/23 10:43:56;;;;;;;32.72;22.20;;;;;;;;;;4976646;28;20137;-86
2022/03/23 10:46:22;;;;;;;32.45;22.02;;;;;;;;;;4968959;28;20038;-79
2022/03/23 10:49:01;;;;;;;33.83;22.27;;;;;;;;;;4994501;28;20491;-79
2022/03/23 10:51:31;;;;;;;31.70;21.92;;;;;;;;;;4972776;28;20117;-81
2022/03/23 10:53:57;;;;;;;35.83;22.35;;;;;;;;;;4972171;28;20395;-79
2022/03/23 10:56:38;;;;;;;30.98;21.48;;;;;;;;;;4972621;28;20030;-91
2022/03/23 10:59:22;;;;;;;34.28;22.48;;;;;;;;;;4975588;28;20057;-81
2022/03/23 11:02:08;;;;;;;32.60;22.33;;;;;;;;;;4969688;28;20371;-81
2022/03/23 11:04:52;;;;;;;32.90;21.77;;;;;;;;;;4972270;28;20069;-81
2022/03/23 11:07:27;;;;;;;33.78;22.13;;;;;;;;;;4989206;28;20458;-81
2022/03/23 11:18:07;;;;;;;34.22;21.02;;;;;;;;;;4987535;28;20029;-81
2022/03/23 11:20:39;;;;;;;32.28;21.10;;;;;;;;;;4992268;28;20038;-81
2022/03/23 11:23:25;;;;;;;27.57;20.47;;;;;;;;;;4969120;28;20026;-91
2022/03/23 11:25:53;;;;;;;32.05;21.25;;;;;;;;;;4971525;28;20407;-86
2022/03/23 11:28:19;;;;;;;32.22;21.38;;;;;;;;;;4964225;28;20023;-81
2022/03/23 11:30:46;;;;;;;36.28;21.58;;;;;;;;;;4984639;28;20486;-80
2022/03/23 11:33:14;;;;;;;32.60;21.02;;;;;;;;;;4964567;28;20018;-81
2022/03/23 11:35:49;;;;;;;32.08;22.15;;;;;;;;;;4967079;28;20393;-88
2022/03/23 11:38:20;;;;;;;32.92;21.52;;;;;;;;;;4970245;28;20022;-81
2022/03/23 11:40:48;;;;;;;34.15;22.05;;;;;;;;;;4974465;28;20347;-79
2022/03/23 11:43:15;;;;;;;29.35;19.23;;;;;;;;;;4970219;28;20634;-81
2022/03/23 11:45:43;;;;;;;33.15;21.60;;;;;;;;;;4968984;28;20431;-82
2022/03/23 11:48:24;;;;;;;31.85;21.50;;;;;;;;;;4969851;28;20081;-86
2022/03/23 11:51:11;;;;;;;32.30;20.98;;;;;;;;;;4970037;28;20205;-81
2022/03/23 11:54:10;;;;;;;31.05;20.80;;;;;;;;;;4978882;28;20090;-86
2022/03/23 11:56:57;;;;;;;30.10;19.85;;;;;;;;;;4974720;28;20026;-89
2022/03/23 11:59:27;;;;;;;29.08;20.35;;;;;;;;;;4973957;28;20413;-81
2022/03/23 12:01:54;;;;;;;28.67;20.65;;;;;;;;;;4964930;28;20413;-81
2022/03/23 12:04:24;;;;;;;27.60;19.50;;;;;;;;;;4986099;28;20036;-81
2022/03/23 12:06:57;;;;;;;29.52;19.70;;;;;;;;;;4969091;28;20265;-80
2022/03/23 12:09:30;;;;;;;33.65;20.65;;;;;;;;;;4986940;28;20470;-80
2022/03/23 12:11:56;;;;;;;29.95;20.88;;;;;;;;;;4988231;28;20518;-88
2022/03/23 12:14:30;;;;;;;29.23;20.55;;;;;;;;;;4970159;28;20065;-81
2022/03/23 12:16:56;;;;;;;29.17;19.85;;;;;;;;;;4971303;28;20105;-81
2022/03/23 12:19:26;;;;;;;30.65;20.48;;;;;;;;;;4974045;28;20117;-89
2022/03/23 12:22:03;;;;;;;28.70;20.00;;;;;;;;;;4968591;28;20065;-81
2022/03/23 12:24:47;;;;;;;28.27;20.73;;;;;;;;;;4967946;28;20065;-80
2022/03/23 12:27:38;;;;;;;27.23;19.17;;;;;;;;;;4990676;28;20042;-81
2022/03/23 12:30:12;;;;;;;29.85;18.70;;;;;;;;;;4987937;28;20030;-79
2022/03/23 12:32:38;;;;;;;31.95;20.17;;;;;;;;;;4986016;28;20031;-82
2022/03/23 12:35:05;;;;;;;27.55;19.05;;;;;;;;;;4981066;28;20041;-86
2022/03/23 12:37:42;;;;;;;28.10;20.10;;;;;;;;;;4976618;28;20524;-79
2022/03/23 12:40:13;;;;;;;27.23;18.67;;;;;;;;;;4968734;28;20513;-87
2022/03/23 12:42:45;;;;;;;25.30;18.52;;;;;;;;;;4961623;28;20079;-77
2022/03/23 12:45:16;;;;;;;28.40;18.95;;;;;;;;;;4965075;28;20113;-85
2022/03/23 12:59:18;;;;;;;27.23;18.52;;;;;;;;;;4959633;28;20549;-80
2022/03/23 13:01:44;;;;;;;25.67;19.17;;;;;;;;;;4958312;28;20041;-85
2022/03/23 13:04:44;;;;;;;28.05;18.52;;;;;;;;;;4965550;28;20066;-79
2022/03/23 13:07:28;;;;;;;27.85;18.48;;;;;;;;;;4976715;28;20118;-87
2022/03/23 13:09:57;;;;;;;27.80;18.92;;;;;;;;;;4968214;28;20039;-84
2022/03/23 13:12:26;;;;;;;24.77;17.60;;;;;;;;;;4994853;28;20038;-78
2022/03/23 13:14:52;;;;;;;26.13;17.95;;;;;;;;;;4955884;28;20038;-79
2022/03/23 13:17:18;;;;;;;25.30;17.30;;;;;;;;;;4956471;28;20839;-88
2022/03/23 13:19:44;;;;;;;27.52;18.92;;;;;;;;;;4957858;28;20431;-86
2022/03/23 13:22:12;;;;;;;24.25;17.08;;;;;;;;;;4962286;28;20034;-79
2022/03/23 13:24:38;;;;;;;24.45;17.60;;;;;;;;;;4974930;28;20610;-80
2022/03/23 13:27:10;;;;;;;27.27;18.27;;;;;;;;;;4959854;28;20037;-78
2022/03/23 13:29:36;;;;;;;25.25;17.25;;;;;;;;;;4957743;28;20062;-78
2022/03/23 13:32:06;;;;;;;22.20;16.20;;;;;;;;;;4963735;28;20035;-80
2022/03/23 13:34:36;;;;;;;25.70;18.13;;;;;;;;;;4961050;28;20034;-79
2022/03/23 13:37:02;;;;;;;25.70;17.00;;;;;;;;;;4961053;28;20031;-88
2022/03/23 13:39:27;;;;;;;24.52;17.33;;;;;;;;;;4984946;28;20149;-79
2022/03/23 13:44:56;;;;;;;25.23;17.17;;;;;;;;;;4976936;28;20065;-78
2022/03/23 13:47:37;;;;;;;26.65;16.95;;;;;;;;;;4982828;28;20041;-78
2022/03/23 13:50:07;;;;;;;24.42;16.63;;;;;;;;;;4959942;28;20038;-79
2022/03/23 13:52:32;;;;;;;25.88;16.30;;;;;;;;;;4973782;28;20042;-80
2022/03/23 13:54:59;;;;;;;24.25;16.30;;;;;;;;;;4975810;28;20026;-79
2022/03/23 13:57:28;;;;;;;25.83;16.23;;;;;;;;;;4967109;28;20038;-80
2022/03/23 13:59:54;;;;;;;26.42;17.13;;;;;;;;;;4958838;28;20037;-80
2022/03/23 14:02:26;;;;;;;24.38;16.42;;;;;;;;;;4981919;28;20434;-79
2022/03/23 14:04:52;;;;;;;25.25;15.80;;;;;;;;;;4966595;28;20583;-79
2022/03/23 14:07:18;;;;;;;26.55;17.50;;;;;;;;;;4966770;28;20141;-84
2022/03/23 14:09:45;;;;;;;25.27;17.40;;;;;;;;;;4979102;28;20035;-78
2022/03/23 14:12:13;;;;;;;24.83;16.60;;;;;;;;;;4979746;28;20041;-87
2022/03/23 14:14:43;;;;;;;22.20;16.40;;;;;;;;;;4975924;28;20196;-80
2022/03/23 14:17:13;;;;;;;24.42;16.33;;;;;;;;;;4982639;28;20025;-80
2022/03/23 14:19:41;;;;;;;24.30;16.35;;;;;;;;;;4969999;28;20034;-80
2022/03/23 14:22:15;;;;;;;21.63;15.60;;;;;;;;;;4992902;28;20329;-79
2022/03/23 14:24:42;;;;;;;22.88;15.30;;;;;;;;;;4963694;28;20119;-79
2022/03/23 14:27:25;;;;;;;23.08;15.35;;;;;;;;;;4978614;28;20030;-87
2022/03/23 14:29:56;;;;;;;;;;;;;;;;;;4979657;28;20037;-79
2022/03/23 14:32:29;;;;;;;24.50;14.98;;;;;;;;;;4962777;28;20027;-85
2022/03/23 14:34:54;;;;;;;;;;;;;;;;;;4975651;28;20529;-82
2022/03/23 14:37:20;;;;;;;23.08;15.70;;;;;;;;;;4976165;28;19917;-79
2022/03/23 14:39:48;;;;;;;20.73;15.63;;;;;;;;;;4962698;28;20037;-78
2022/03/23 14:42:18;;;;;;;21.00;15.75;;;;;;;;;;4975161;28;20557;-78
2022/03/23 14:44:46;;;;;;;23.75;16.25;;;;;;;;;;4969635;28;20069;-79
2022/03/23 14:47:13;;;;;;;21.73;16.00;;;;;;;;;;4992691;28;20030;-79
2022/03/23 14:49:41;;;;;;;25.27;16.95;;;;;;;;;;4991063;28;20493;-79
2022/03/23 14:52:08;;;;;;;26.33;17.17;;;;;;;;;;4984970;28;20720;-78
2022/03/23 14:54:39;;;;;;;24.90;16.15;;;;;;;;;;4962902;28;20858;-79
2022/03/23 14:57:11;;;;;;;27.42;17.42;;;;;;;;;;4977652;28;20336;-79
2022/03/23 14:59:52;;;;;;;24.33;16.73;;;;;;;;;;4961058;28;20061;-78